sensor_id;sensor_type;location;lat;lon;timestamp;temperature;humidity
7738;DHT22;29398;45.328;5.558;2023-07-31T00:00:58;19.80;82.50
7738;DHT22;29398;45.328;5.558;2023-07-31T00:02:00;19.80;82.70
7738;DHT22;29398;45.328;5.558;2023-07-31T00:03:01;19.80;82.50
7738;DHT22;29398;45.328;5.558;2023-07-31T00:05:05;19.70;82.30
7738;DHT22;29398;45.328;5.558;2023-07-31T00:06:08;19.70;83.00
7738;DHT22;29398;45.328;5.558;2023-07-31T00:07:09;19.70;83.00
7738;DHT22;29398;45.328;5.558;2023-07-31T00:08:11;19.60;83.00
7738;DHT22;29398;45.328;5.558;2023-07-31T00:09:12;19.60;83.50
7738;DHT22;29398;45.328;5.558;2023-07-31T00:10:13;19.70;83.90
7738;DHT22;29398;45.328;5.558;2023-07-31T00:11:15;19.60;83.90
7738;DHT22;29398;45.328;5.558;2023-07-31T00:12:16;19.60;84.20
7738;DHT22;29398;45.328;5.558;2023-07-31T00:13:18;19.50;84.20
7738;DHT22;29398;45.328;5.558;2023-07-31T00:14:19;19.50;84.70
7738;DHT22;29398;45.328;5.558;2023-07-31T00:15:21;19.50;84.70
7738;DHT22;29398;45.328;5.558;2023-07-31T00:16:22;19.50;84.70
7738;DHT22;29398;45.328;5.558;2023-07-31T00:17:24;19.50;84.50
7738;DHT22;29398;45.328;5.558;2023-07-31T00:21:32;19.40;85.30
7738;DHT22;29398;45.328;5.558;2023-07-31T00:22:33;19.30;85.60
7738;DHT22;29398;45.328;5.558;2023-07-31T00:23:37;19.30;85.60
7738;DHT22;29398;45.328;5.558;2023-07-31T00:24:38;19.30;85.90
7738;DHT22;29398;45.328;5.558;2023-07-31T00:25:40;19.30;86.20
7738;DHT22;29398;45.328;5.558;2023-07-31T00:26:41;19.30;86.60
7738;DHT22;29398;45.328;5.558;2023-07-31T00:27:43;19.30;86.80
7738;DHT22;29398;45.328;5.558;2023-07-31T00:28:46;19.20;86.80
7738;DHT22;29398;45.328;5.558;2023-07-31T00:29:49;19.20;87.00
7738;DHT22;29398;45.328;5.558;2023-07-31T00:31:52;19.20;87.00
7738;DHT22;29398;45.328;5.558;2023-07-31T00:33:54;19.10;87.30
7738;DHT22;29398;45.328;5.558;2023-07-31T00:34:56;19.10;87.30
7738;DHT22;29398;45.328;5.558;2023-07-31T00:35:57;19.10;87.70
7738;DHT22;29398;45.328;5.558;2023-07-31T00:37:02;19.10;87.40
7738;DHT22;29398;45.328;5.558;2023-07-31T00:38:03;19.10;87.90
7738;DHT22;29398;45.328;5.558;2023-07-31T00:39:04;19.10;87.70
7738;DHT22;29398;45.328;5.558;2023-07-31T00:40:07;19.10;87.60
7738;DHT22;29398;45.328;5.558;2023-07-31T00:41:09;19.10;87.70
7738;DHT22;29398;45.328;5.558;2023-07-31T00:42:11;19.00;87.70
7738;DHT22;29398;45.328;5.558;2023-07-31T00:43:12;19.10;88.10
7738;DHT22;29398;45.328;5.558;2023-07-31T00:44:15;19.00;87.90
7738;DHT22;29398;45.328;5.558;2023-07-31T00:45:16;19.00;87.90
7738;DHT22;29398;45.328;5.558;2023-07-31T00:46:18;19.00;87.90
7738;DHT22;29398;45.328;5.558;2023-07-31T00:47:19;19.00;88.40
7738;DHT22;29398;45.328;5.558;2023-07-31T00:48:21;19.00;88.80
7738;DHT22;29398;45.328;5.558;2023-07-31T00:49:23;19.00;88.80
7738;DHT22;29398;45.328;5.558;2023-07-31T00:52:30;19.00;88.90
7738;DHT22;29398;45.328;5.558;2023-07-31T00:53:31;18.90;89.30
7738;DHT22;29398;45.328;5.558;2023-07-31T00:54:33;19.00;89.10
7738;DHT22;29398;45.328;5.558;2023-07-31T00:56:37;18.90;89.00
7738;DHT22;29398;45.328;5.558;2023-07-31T00:57:40;18.90;89.30
7738;DHT22;29398;45.328;5.558;2023-07-31T00:58:42;18.90;89.70
7738;DHT22;29398;45.328;5.558;2023-07-31T00:59:44;18.90;89.50
7738;DHT22;29398;45.328;5.558;2023-07-31T01:00:45;18.80;89.30
7738;DHT22;29398;45.328;5.558;2023-07-31T01:01:47;18.80;89.50
7738;DHT22;29398;45.328;5.558;2023-07-31T01:03:52;18.80;90.00
7738;DHT22;29398;45.328;5.558;2023-07-31T01:07:11;18.70;90.20
7738;DHT22;29398;45.328;5.558;2023-07-31T01:10:37;18.70;90.50
7738;DHT22;29398;45.328;5.558;2023-07-31T01:11:48;18.70;90.60
7738;DHT22;29398;45.328;5.558;2023-07-31T01:12:52;18.60;90.80
7738;DHT22;29398;45.328;5.558;2023-07-31T01:13:54;18.70;90.80
7738;DHT22;29398;45.328;5.558;2023-07-31T01:15:04;18.70;90.90
7738;DHT22;29398;45.328;5.558;2023-07-31T01:16:05;18.60;90.90
7738;DHT22;29398;45.328;5.558;2023-07-31T01:17:08;18.60;91.00
7738;DHT22;29398;45.328;5.558;2023-07-31T01:18:09;18.60;91.10
7738;DHT22;29398;45.328;5.558;2023-07-31T01:19:11;18.60;91.20
7738;DHT22;29398;45.328;5.558;2023-07-31T01:20:18;18.60;91.00
7738;DHT22;29398;45.328;5.558;2023-07-31T01:21:36;18.60;91.20
7738;DHT22;29398;45.328;5.558;2023-07-31T01:22:59;18.60;91.40
7738;DHT22;29398;45.328;5.558;2023-07-31T01:24:20;18.50;91.30
7738;DHT22;29398;45.328;5.558;2023-07-31T01:27:53;18.50;91.40
7738;DHT22;29398;45.328;5.558;2023-07-31T01:29:03;18.50;91.60
7738;DHT22;29398;45.328;5.558;2023-07-31T01:30:10;18.50;91.60
7738;DHT22;29398;45.328;5.558;2023-07-31T01:31:19;18.50;91.90
7738;DHT22;29398;45.328;5.558;2023-07-31T01:32:22;18.40;92.00
7738;DHT22;29398;45.328;5.558;2023-07-31T01:33:27;18.40;92.30
7738;DHT22;29398;45.328;5.558;2023-07-31T01:34:29;18.40;92.20
7738;DHT22;29398;45.328;5.558;2023-07-31T01:38:36;18.50;92.50
7738;DHT22;29398;45.328;5.558;2023-07-31T01:39:38;18.50;92.50
7738;DHT22;29398;45.328;5.558;2023-07-31T01:40:41;18.50;92.40
7738;DHT22;29398;45.328;5.558;2023-07-31T01:41:45;18.50;92.40
7738;DHT22;29398;45.328;5.558;2023-07-31T01:43:49;18.50;92.60
7738;DHT22;29398;45.328;5.558;2023-07-31T01:44:50;18.50;92.70
7738;DHT22;29398;45.328;5.558;2023-07-31T01:45:52;18.50;92.90
7738;DHT22;29398;45.328;5.558;2023-07-31T01:46:53;18.40;92.70
7738;DHT22;29398;45.328;5.558;2023-07-31T01:47:55;18.40;92.70
7738;DHT22;29398;45.328;5.558;2023-07-31T01:48:57;18.40;92.90
7738;DHT22;29398;45.328;5.558;2023-07-31T01:49:59;18.40;93.00
7738;DHT22;29398;45.328;5.558;2023-07-31T01:51:00;18.40;93.20
7738;DHT22;29398;45.328;5.558;2023-07-31T01:52:03;18.40;93.40
7738;DHT22;29398;45.328;5.558;2023-07-31T01:53:04;18.40;93.40
7738;DHT22;29398;45.328;5.558;2023-07-31T01:54:06;18.40;93.40
7738;DHT22;29398;45.328;5.558;2023-07-31T01:55:07;18.30;93.40
7738;DHT22;29398;45.328;5.558;2023-07-31T01:56:09;18.20;93.50
7738;DHT22;29398;45.328;5.558;2023-07-31T01:57:12;18.20;93.50
7738;DHT22;29398;45.328;5.558;2023-07-31T01:58:14;18.20;93.50
7738;DHT22;29398;45.328;5.558;2023-07-31T02:01:20;18.20;93.70
7738;DHT22;29398;45.328;5.558;2023-07-31T02:02:21;18.20;93.70
7738;DHT22;29398;45.328;5.558;2023-07-31T02:04:27;18.20;93.60
7738;DHT22;29398;45.328;5.558;2023-07-31T02:06:30;18.10;93.70
7738;DHT22;29398;45.328;5.558;2023-07-31T02:10:37;18.10;93.90
7738;DHT22;29398;45.328;5.558;2023-07-31T02:11:39;18.10;94.00
7738;DHT22;29398;45.328;5.558;2023-07-31T02:12:42;18.20;94.10
7738;DHT22;29398;45.328;5.558;2023-07-31T02:13:44;18.10;94.00
7738;DHT22;29398;45.328;5.558;2023-07-31T02:14:45;18.10;94.00
7738;DHT22;29398;45.328;5.558;2023-07-31T02:15:48;18.00;94.10
7738;DHT22;29398;45.328;5.558;2023-07-31T02:17:51;18.00;94.40
7738;DHT22;29398;45.328;5.558;2023-07-31T02:19:54;18.00;94.40
7738;DHT22;29398;45.328;5.558;2023-07-31T02:25:03;17.90;95.00
7738;DHT22;29398;45.328;5.558;2023-07-31T02:26:05;17.90;95.00
7738;DHT22;29398;45.328;5.558;2023-07-31T02:28:10;17.80;95.30
7738;DHT22;29398;45.328;5.558;2023-07-31T02:29:11;17.80;95.70
7738;DHT22;29398;45.328;5.558;2023-07-31T02:31:14;17.80;96.10
7738;DHT22;29398;45.328;5.558;2023-07-31T02:33:17;17.80;96.20
7738;DHT22;29398;45.328;5.558;2023-07-31T02:34:21;17.80;96.40
7738;DHT22;29398;45.328;5.558;2023-07-31T02:35:22;17.80;96.50
7738;DHT22;29398;45.328;5.558;2023-07-31T02:37:25;17.70;96.70
7738;DHT22;29398;45.328;5.558;2023-07-31T02:41:34;17.80;96.60
7738;DHT22;29398;45.328;5.558;2023-07-31T02:43:39;17.80;96.60
7738;DHT22;29398;45.328;5.558;2023-07-31T02:44:40;17.80;96.70
7738;DHT22;29398;45.328;5.558;2023-07-31T02:45:42;17.80;96.70
7738;DHT22;29398;45.328;5.558;2023-07-31T02:46:43;17.80;96.80
7738;DHT22;29398;45.328;5.558;2023-07-31T02:47:46;17.80;96.70
7738;DHT22;29398;45.328;5.558;2023-07-31T02:49:50;17.80;96.90
7738;DHT22;29398;45.328;5.558;2023-07-31T02:50:52;17.70;97.00
7738;DHT22;29398;45.328;5.558;2023-07-31T02:51:53;17.80;97.10
7738;DHT22;29398;45.328;5.558;2023-07-31T02:53:57;17.80;97.20
7738;DHT22;29398;45.328;5.558;2023-07-31T02:54:58;17.70;97.10
7738;DHT22;29398;45.328;5.558;2023-07-31T02:56:00;17.70;97.30
7738;DHT22;29398;45.328;5.558;2023-07-31T02:57:01;17.70;97.20
7738;DHT22;29398;45.328;5.558;2023-07-31T02:58:03;17.70;97.40
7738;DHT22;29398;45.328;5.558;2023-07-31T02:59:06;17.70;97.20
7738;DHT22;29398;45.328;5.558;2023-07-31T03:01:10;17.70;97.20
7738;DHT22;29398;45.328;5.558;2023-07-31T03:03:13;17.70;97.20
7738;DHT22;29398;45.328;5.558;2023-07-31T03:05:17;17.60;97.20
7738;DHT22;29398;45.328;5.558;2023-07-31T03:06:18;17.50;97.20
7738;DHT22;29398;45.328;5.558;2023-07-31T03:07:19;17.50;97.40
7738;DHT22;29398;45.328;5.558;2023-07-31T03:08:20;17.50;97.50
7738;DHT22;29398;45.328;5.558;2023-07-31T03:09:24;17.50;97.60
7738;DHT22;29398;45.328;5.558;2023-07-31T03:11:27;17.50;97.70
7738;DHT22;29398;45.328;5.558;2023-07-31T03:12:28;17.50;97.80
7738;DHT22;29398;45.328;5.558;2023-07-31T03:13:30;17.50;98.00
7738;DHT22;29398;45.328;5.558;2023-07-31T03:15:35;17.40;97.90
7738;DHT22;29398;45.328;5.558;2023-07-31T03:17:38;17.40;98.30
7738;DHT22;29398;45.328;5.558;2023-07-31T03:19:42;17.40;98.40
7738;DHT22;29398;45.328;5.558;2023-07-31T03:21:45;17.50;98.50
7738;DHT22;29398;45.328;5.558;2023-07-31T03:23:47;17.40;98.50
7738;DHT22;29398;45.328;5.558;2023-07-31T03:24:49;17.50;98.50
7738;DHT22;29398;45.328;5.558;2023-07-31T03:25:58;17.50;98.60
7738;DHT22;29398;45.328;5.558;2023-07-31T03:27:03;17.40;98.60
7738;DHT22;29398;45.328;5.558;2023-07-31T03:28:05;17.40;98.80
7738;DHT22;29398;45.328;5.558;2023-07-31T03:29:06;17.40;98.70
7738;DHT22;29398;45.328;5.558;2023-07-31T03:30:10;17.40;99.00
7738;DHT22;29398;45.328;5.558;2023-07-31T03:34:17;17.30;99.50
7738;DHT22;29398;45.328;5.558;2023-07-31T03:35:19;17.30;99.60
7738;DHT22;29398;45.328;5.558;2023-07-31T03:36:20;17.20;99.90
7738;DHT22;29398;45.328;5.558;2023-07-31T03:37:23;17.30;99.90
7738;DHT22;29398;45.328;5.558;2023-07-31T03:38:24;17.20;99.90
7738;DHT22;29398;45.328;5.558;2023-07-31T03:39:28;17.20;99.90
7738;DHT22;29398;45.328;5.558;2023-07-31T03:40:29;17.20;99.90
7738;DHT22;29398;45.328;5.558;2023-07-31T03:42:32;17.30;99.90
7738;DHT22;29398;45.328;5.558;2023-07-31T03:44:36;17.30;99.90
7738;DHT22;29398;45.328;5.558;2023-07-31T03:45:40;17.30;99.90
7738;DHT22;29398;45.328;5.558;2023-07-31T03:46:41;17.30;99.90
7738;DHT22;29398;45.328;5.558;2023-07-31T03:47:42;17.20;99.90
7738;DHT22;29398;45.328;5.558;2023-07-31T03:49:46;17.20;99.90
7738;DHT22;29398;45.328;5.558;2023-07-31T03:51:49;17.20;99.90
7738;DHT22;29398;45.328;5.558;2023-07-31T03:52:52;17.30;99.90
7738;DHT22;29398;45.328;5.558;2023-07-31T03:53:53;17.30;99.90
7738;DHT22;29398;45.328;5.558;2023-07-31T03:54:55;17.30;99.90
7738;DHT22;29398;45.328;5.558;2023-07-31T03:55:56;17.30;99.90
7738;DHT22;29398;45.328;5.558;2023-07-31T03:56:58;17.20;99.90
7738;DHT22;29398;45.328;5.558;2023-07-31T03:57:59;17.20;99.90
7738;DHT22;29398;45.328;5.558;2023-07-31T03:59:01;17.20;99.90
7738;DHT22;29398;45.328;5.558;2023-07-31T04:00:03;17.30;99.90
7738;DHT22;29398;45.328;5.558;2023-07-31T04:01:14;17.20;99.90
7738;DHT22;29398;45.328;5.558;2023-07-31T04:03:19;17.30;99.90
7738;DHT22;29398;45.328;5.558;2023-07-31T04:04:20;17.20;99.90
7738;DHT22;29398;45.328;5.558;2023-07-31T04:05:22;17.30;99.90
7738;DHT22;29398;45.328;5.558;2023-07-31T04:06:23;17.30;99.90
7738;DHT22;29398;45.328;5.558;2023-07-31T04:09:29;17.30;99.90
7738;DHT22;29398;45.328;5.558;2023-07-31T04:10:30;17.30;99.90
7738;DHT22;29398;45.328;5.558;2023-07-31T04:12:39;17.30;99.90
7738;DHT22;29398;45.328;5.558;2023-07-31T04:13:40;17.30;99.90
7738;DHT22;29398;45.328;5.558;2023-07-31T04:14:42;17.40;99.90
7738;DHT22;29398;45.328;5.558;2023-07-31T04:15:43;17.40;99.90
7738;DHT22;29398;45.328;5.558;2023-07-31T04:17:53;17.40;99.90
7738;DHT22;29398;45.328;5.558;2023-07-31T04:19:56;17.40;99.90
7738;DHT22;29398;45.328;5.558;2023-07-31T04:20:58;17.40;99.90
7738;DHT22;29398;45.328;5.558;2023-07-31T04:21:59;17.40;99.90
7738;DHT22;29398;45.328;5.558;2023-07-31T04:23:01;17.40;99.90
7738;DHT22;29398;45.328;5.558;2023-07-31T04:24:02;17.40;99.90
7738;DHT22;29398;45.328;5.558;2023-07-31T04:27:08;17.30;99.90
7738;DHT22;29398;45.328;5.558;2023-07-31T04:29:12;17.30;99.90
7738;DHT22;29398;45.328;5.558;2023-07-31T04:30:13;17.30;99.90
7738;DHT22;29398;45.328;5.558;2023-07-31T04:31:14;17.30;99.90
7738;DHT22;29398;45.328;5.558;2023-07-31T04:32:17;17.30;99.90
7738;DHT22;29398;45.328;5.558;2023-07-31T04:33:18;17.30;99.90
7738;DHT22;29398;45.328;5.558;2023-07-31T04:34:20;17.30;99.90
7738;DHT22;29398;45.328;5.558;2023-07-31T04:35:21;17.30;99.90
7738;DHT22;29398;45.328;5.558;2023-07-31T04:36:22;17.30;99.90
7738;DHT22;29398;45.328;5.558;2023-07-31T04:38:25;17.30;99.90
7738;DHT22;29398;45.328;5.558;2023-07-31T04:39:27;17.30;99.90
7738;DHT22;29398;45.328;5.558;2023-07-31T04:40:28;17.30;99.90
7738;DHT22;29398;45.328;5.558;2023-07-31T04:44:39;17.30;99.90
7738;DHT22;29398;45.328;5.558;2023-07-31T04:45:45;17.30;99.90
7738;DHT22;29398;45.328;5.558;2023-07-31T04:47:50;17.30;99.90
7738;DHT22;29398;45.328;5.558;2023-07-31T04:49:53;17.30;99.90
7738;DHT22;29398;45.328;5.558;2023-07-31T04:50:54;17.30;99.90
7738;DHT22;29398;45.328;5.558;2023-07-31T04:51:56;17.30;99.90
7738;DHT22;29398;45.328;5.558;2023-07-31T04:52:57;17.30;99.90
7738;DHT22;29398;45.328;5.558;2023-07-31T04:53:59;17.30;99.90
7738;DHT22;29398;45.328;5.558;2023-07-31T04:55:01;17.30;99.90
7738;DHT22;29398;45.328;5.558;2023-07-31T04:56:03;17.30;99.90
7738;DHT22;29398;45.328;5.558;2023-07-31T04:57:05;17.30;99.90
7738;DHT22;29398;45.328;5.558;2023-07-31T04:59:09;17.30;99.90
7738;DHT22;29398;45.328;5.558;2023-07-31T05:02:15;17.30;99.90
7738;DHT22;29398;45.328;5.558;2023-07-31T05:03:17;17.30;99.90
7738;DHT22;29398;45.328;5.558;2023-07-31T05:05:21;17.30;99.90
7738;DHT22;29398;45.328;5.558;2023-07-31T05:06:22;17.40;99.90
7738;DHT22;29398;45.328;5.558;2023-07-31T05:07:24;17.40;99.90
7738;DHT22;29398;45.328;5.558;2023-07-31T05:10:28;17.40;99.90
7738;DHT22;29398;45.328;5.558;2023-07-31T05:12:32;17.40;99.90
7738;DHT22;29398;45.328;5.558;2023-07-31T05:14:35;17.40;99.90
7738;DHT22;29398;45.328;5.558;2023-07-31T05:15:38;17.40;99.90
7738;DHT22;29398;45.328;5.558;2023-07-31T05:16:39;17.40;99.90
7738;DHT22;29398;45.328;5.558;2023-07-31T05:17:41;17.50;99.90
7738;DHT22;29398;45.328;5.558;2023-07-31T05:18:43;17.50;99.90
7738;DHT22;29398;45.328;5.558;2023-07-31T05:21:49;17.50;99.90
7738;DHT22;29398;45.328;5.558;2023-07-31T05:22:50;17.50;99.90
7738;DHT22;29398;45.328;5.558;2023-07-31T05:24:54;17.50;99.90
7738;DHT22;29398;45.328;5.558;2023-07-31T05:25:55;17.50;99.90
7738;DHT22;29398;45.328;5.558;2023-07-31T05:29:01;17.60;99.90
7738;DHT22;29398;45.328;5.558;2023-07-31T05:30:02;17.70;99.90
7738;DHT22;29398;45.328;5.558;2023-07-31T05:33:09;17.70;99.90
7738;DHT22;29398;45.328;5.558;2023-07-31T05:35:13;17.80;99.90
7738;DHT22;29398;45.328;5.558;2023-07-31T05:37:17;17.80;99.90
7738;DHT22;29398;45.328;5.558;2023-07-31T05:39:20;17.80;99.90
7738;DHT22;29398;45.328;5.558;2023-07-31T05:42:24;17.90;99.90
7738;DHT22;29398;45.328;5.558;2023-07-31T05:44:28;18.00;99.90
7738;DHT22;29398;45.328;5.558;2023-07-31T05:46:31;18.00;99.90
7738;DHT22;29398;45.328;5.558;2023-07-31T05:47:33;18.00;99.90
7738;DHT22;29398;45.328;5.558;2023-07-31T05:50:39;18.10;99.90
7738;DHT22;29398;45.328;5.558;2023-07-31T05:51:41;18.20;99.90
7738;DHT22;29398;45.328;5.558;2023-07-31T05:52:42;18.20;99.90
7738;DHT22;29398;45.328;5.558;2023-07-31T05:53:44;18.20;99.90
7738;DHT22;29398;45.328;5.558;2023-07-31T05:57:51;18.30;99.90
7738;DHT22;29398;45.328;5.558;2023-07-31T05:58:52;18.40;99.90
7738;DHT22;29398;45.328;5.558;2023-07-31T05:59:54;18.30;99.90
7738;DHT22;29398;45.328;5.558;2023-07-31T06:04:01;18.40;99.90
7738;DHT22;29398;45.328;5.558;2023-07-31T06:08:11;18.50;99.90
7738;DHT22;29398;45.328;5.558;2023-07-31T06:09:12;18.60;99.90
7738;DHT22;29398;45.328;5.558;2023-07-31T06:10:14;18.60;99.90
7738;DHT22;29398;45.328;5.558;2023-07-31T06:11:15;18.60;99.90
7738;DHT22;29398;45.328;5.558;2023-07-31T06:12:17;18.70;99.90
7738;DHT22;29398;45.328;5.558;2023-07-31T06:14:21;18.70;99.90
7738;DHT22;29398;45.328;5.558;2023-07-31T06:15:22;18.80;99.90
7738;DHT22;29398;45.328;5.558;2023-07-31T06:16:24;18.80;99.90
7738;DHT22;29398;45.328;5.558;2023-07-31T06:17:26;18.80;99.90
7738;DHT22;29398;45.328;5.558;2023-07-31T06:20:33;18.90;99.90
7738;DHT22;29398;45.328;5.558;2023-07-31T06:23:39;19.00;99.90
7738;DHT22;29398;45.328;5.558;2023-07-31T06:25:42;19.00;99.90
7738;DHT22;29398;45.328;5.558;2023-07-31T06:26:44;19.00;99.90
7738;DHT22;29398;45.328;5.558;2023-07-31T06:29:49;19.10;99.90
7738;DHT22;29398;45.328;5.558;2023-07-31T06:31:52;19.20;99.90
7738;DHT22;29398;45.328;5.558;2023-07-31T06:33:55;19.20;99.90
7738;DHT22;29398;45.328;5.558;2023-07-31T06:34:57;19.30;99.90
7738;DHT22;29398;45.328;5.558;2023-07-31T06:36:00;19.30;99.90
7738;DHT22;29398;45.328;5.558;2023-07-31T06:37:02;19.30;99.90
7738;DHT22;29398;45.328;5.558;2023-07-31T06:38:03;19.30;99.90
7738;DHT22;29398;45.328;5.558;2023-07-31T06:39:05;19.30;99.90
7738;DHT22;29398;45.328;5.558;2023-07-31T06:41:09;19.40;99.90
7738;DHT22;29398;45.328;5.558;2023-07-31T06:42:11;19.40;99.90
7738;DHT22;29398;45.328;5.558;2023-07-31T06:43:13;19.40;99.90
7738;DHT22;29398;45.328;5.558;2023-07-31T06:45:16;19.50;99.70
7738;DHT22;29398;45.328;5.558;2023-07-31T06:46:17;19.50;99.70
7738;DHT22;29398;45.328;5.558;2023-07-31T06:47:19;19.50;99.30
7738;DHT22;29398;45.328;5.558;2023-07-31T06:48:20;19.50;98.90
7738;DHT22;29398;45.328;5.558;2023-07-31T06:49:22;19.50;98.70
7738;DHT22;29398;45.328;5.558;2023-07-31T06:50:23;19.50;98.80
7738;DHT22;29398;45.328;5.558;2023-07-31T06:53:30;19.60;98.70
7738;DHT22;29398;45.328;5.558;2023-07-31T06:55:34;19.60;97.90
7738;DHT22;29398;45.328;5.558;2023-07-31T07:03:48;19.80;97.90
7738;DHT22;29398;45.328;5.558;2023-07-31T07:04:51;19.90;97.90
7738;DHT22;29398;45.328;5.558;2023-07-31T07:05:53;19.90;97.80
7738;DHT22;29398;45.328;5.558;2023-07-31T07:07:58;20.00;97.80
7738;DHT22;29398;45.328;5.558;2023-07-31T07:11:03;20.20;97.90
7738;DHT22;29398;45.328;5.558;2023-07-31T07:13:07;20.10;97.80
7738;DHT22;29398;45.328;5.558;2023-07-31T07:17:15;20.40;97.30
7738;DHT22;29398;45.328;5.558;2023-07-31T07:18:17;20.40;97.10
7738;DHT22;29398;45.328;5.558;2023-07-31T07:20:21;20.50;97.20
7738;DHT22;29398;45.328;5.558;2023-07-31T07:21:22;20.60;96.90
7738;DHT22;29398;45.328;5.558;2023-07-31T07:22:25;20.60;96.50
7738;DHT22;29398;45.328;5.558;2023-07-31T07:23:26;20.70;96.70
7738;DHT22;29398;45.328;5.558;2023-07-31T07:26:32;20.80;96.40
7738;DHT22;29398;45.328;5.558;2023-07-31T07:28:35;20.90;96.10
7738;DHT22;29398;45.328;5.558;2023-07-31T07:29:38;20.90;95.80
7738;DHT22;29398;45.328;5.558;2023-07-31T07:30:39;20.90;95.90
7738;DHT22;29398;45.328;5.558;2023-07-31T07:31:41;21.00;95.50
7738;DHT22;29398;45.328;5.558;2023-07-31T07:32:42;21.00;95.40
7738;DHT22;29398;45.328;5.558;2023-07-31T07:36:49;21.20;95.30
7738;DHT22;29398;45.328;5.558;2023-07-31T07:44:04;21.30;95.20
7738;DHT22;29398;45.328;5.558;2023-07-31T07:47:09;21.30;94.70
7738;DHT22;29398;45.328;5.558;2023-07-31T07:49:13;21.40;95.10
7738;DHT22;29398;45.328;5.558;2023-07-31T07:50:15;21.40;94.50
7738;DHT22;29398;45.328;5.558;2023-07-31T07:51:16;21.50;94.60
7738;DHT22;29398;45.328;5.558;2023-07-31T07:52:18;21.50;94.70
7738;DHT22;29398;45.328;5.558;2023-07-31T07:53:20;21.60;94.50
7738;DHT22;29398;45.328;5.558;2023-07-31T07:54:22;21.60;94.20
7738;DHT22;29398;45.328;5.558;2023-07-31T07:56:26;21.70;94.20
7738;DHT22;29398;45.328;5.558;2023-07-31T07:57:28;21.80;94.20
7738;DHT22;29398;45.328;5.558;2023-07-31T07:58:29;21.90;93.60
7738;DHT22;29398;45.328;5.558;2023-07-31T07:59:30;21.80;93.90
7738;DHT22;29398;45.328;5.558;2023-07-31T08:00:32;22.10;93.90
7738;DHT22;29398;45.328;5.558;2023-07-31T08:04:39;23.00;92.20
7738;DHT22;29398;45.328;5.558;2023-07-31T08:05:40;23.30;91.80
7738;DHT22;29398;45.328;5.558;2023-07-31T08:06:42;23.60;91.10
7738;DHT22;29398;45.328;5.558;2023-07-31T08:07:43;23.90;91.00
7738;DHT22;29398;45.328;5.558;2023-07-31T08:11:52;25.10;87.80
7738;DHT22;29398;45.328;5.558;2023-07-31T08:13:55;25.60;85.90
7738;DHT22;29398;45.328;5.558;2023-07-31T08:16:00;26.10;83.30
7738;DHT22;29398;45.328;5.558;2023-07-31T08:17:02;26.30;83.40
7738;DHT22;29398;45.328;5.558;2023-07-31T08:18:04;26.50;82.20
7738;DHT22;29398;45.328;5.558;2023-07-31T08:20:08;26.90;79.80
7738;DHT22;29398;45.328;5.558;2023-07-31T08:21:10;27.10;80.70
7738;DHT22;29398;45.328;5.558;2023-07-31T08:22:12;27.30;80.80
7738;DHT22;29398;45.328;5.558;2023-07-31T08:23:13;27.50;80.00
7738;DHT22;29398;45.328;5.558;2023-07-31T08:24:16;27.70;78.00
7738;DHT22;29398;45.328;5.558;2023-07-31T08:25:18;27.90;77.00
7738;DHT22;29398;45.328;5.558;2023-07-31T08:27:22;28.20;72.10
7738;DHT22;29398;45.328;5.558;2023-07-31T08:28:23;28.30;74.10
7738;DHT22;29398;45.328;5.558;2023-07-31T08:29:25;28.40;70.50
7738;DHT22;29398;45.328;5.558;2023-07-31T08:30:26;28.50;71.80
7738;DHT22;29398;45.328;5.558;2023-07-31T08:32:30;28.70;71.00
7738;DHT22;29398;45.328;5.558;2023-07-31T08:34:33;28.80;70.20
7738;DHT22;29398;45.328;5.558;2023-07-31T08:35:34;29.00;70.20
7738;DHT22;29398;45.328;5.558;2023-07-31T08:36:36;29.30;70.30
7738;DHT22;29398;45.328;5.558;2023-07-31T08:37:38;29.60;69.30
7738;DHT22;29398;45.328;5.558;2023-07-31T08:38:40;29.90;68.10
7738;DHT22;29398;45.328;5.558;2023-07-31T08:39:42;30.10;68.30
7738;DHT22;29398;45.328;5.558;2023-07-31T08:43:51;30.70;65.10
7738;DHT22;29398;45.328;5.558;2023-07-31T08:44:55;31.00;62.60
7738;DHT22;29398;45.328;5.558;2023-07-31T08:45:56;31.20;61.90
7738;DHT22;29398;45.328;5.558;2023-07-31T08:46:59;31.30;62.60
7738;DHT22;29398;45.328;5.558;2023-07-31T08:48:00;31.40;60.60
7738;DHT22;29398;45.328;5.558;2023-07-31T08:49:04;31.60;60.30
7738;DHT22;29398;45.328;5.558;2023-07-31T08:50:07;31.70;58.60
7738;DHT22;29398;45.328;5.558;2023-07-31T08:51:09;31.90;57.00
7738;DHT22;29398;45.328;5.558;2023-07-31T08:54:14;32.40;57.30
7738;DHT22;29398;45.328;5.558;2023-07-31T08:56:25;32.70;58.30
7738;DHT22;29398;45.328;5.558;2023-07-31T08:57:26;33.00;54.80
7738;DHT22;29398;45.328;5.558;2023-07-31T08:58:31;33.00;57.00
7738;DHT22;29398;45.328;5.558;2023-07-31T08:59:34;33.50;56.70
7738;DHT22;29398;45.328;5.558;2023-07-31T09:00:38;33.80;55.80
7738;DHT22;29398;45.328;5.558;2023-07-31T09:01:45;33.80;55.80
7738;DHT22;29398;45.328;5.558;2023-07-31T09:02:54;34.10;54.70
7738;DHT22;29398;45.328;5.558;2023-07-31T09:03:57;34.20;55.10
7738;DHT22;29398;45.328;5.558;2023-07-31T09:05:01;34.50;52.80
7738;DHT22;29398;45.328;5.558;2023-07-31T09:06:04;34.50;52.60
7738;DHT22;29398;45.328;5.558;2023-07-31T09:07:07;34.60;52.20
7738;DHT22;29398;45.328;5.558;2023-07-31T09:08:11;34.60;51.20
7738;DHT22;29398;45.328;5.558;2023-07-31T09:09:13;34.60;50.50
7738;DHT22;29398;45.328;5.558;2023-07-31T09:10:17;34.70;51.20
7738;DHT22;29398;45.328;5.558;2023-07-31T09:11:21;35.00;51.90
7738;DHT22;29398;45.328;5.558;2023-07-31T09:12:22;35.60;50.50
7738;DHT22;29398;45.328;5.558;2023-07-31T09:13:24;35.80;49.30
7738;DHT22;29398;45.328;5.558;2023-07-31T09:14:25;35.80;49.90
7738;DHT22;29398;45.328;5.558;2023-07-31T09:15:28;36.10;50.70
7738;DHT22;29398;45.328;5.558;2023-07-31T09:17:34;36.50;48.30
7738;DHT22;29398;45.328;5.558;2023-07-31T09:18:53;37.00;47.50
7738;DHT22;29398;45.328;5.558;2023-07-31T09:19:55;37.10;46.10
7738;DHT22;29398;45.328;5.558;2023-07-31T09:21:03;37.60;46.80
7738;DHT22;29398;45.328;5.558;2023-07-31T09:22:05;38.00;46.30
7738;DHT22;29398;45.328;5.558;2023-07-31T09:23:08;38.20;45.50
7738;DHT22;29398;45.328;5.558;2023-07-31T09:24:25;38.40;45.20
7738;DHT22;29398;45.328;5.558;2023-07-31T09:25:27;38.40;44.00
7738;DHT22;29398;45.328;5.558;2023-07-31T09:26:31;38.00;45.00
7738;DHT22;29398;45.328;5.558;2023-07-31T09:27:46;37.80;44.20
7738;DHT22;29398;45.328;5.558;2023-07-31T09:28:48;37.70;43.60
7738;DHT22;29398;45.328;5.558;2023-07-31T09:29:58;37.70;43.60
7738;DHT22;29398;45.328;5.558;2023-07-31T09:31:00;37.80;44.20
7738;DHT22;29398;45.328;5.558;2023-07-31T09:32:01;37.80;44.20
7738;DHT22;29398;45.328;5.558;2023-07-31T09:33:05;38.00;44.20
7738;DHT22;29398;45.328;5.558;2023-07-31T09:35:27;38.50;43.50
7738;DHT22;29398;45.328;5.558;2023-07-31T09:36:29;38.80;44.20
7738;DHT22;29398;45.328;5.558;2023-07-31T09:37:31;39.00;43.90
7738;DHT22;29398;45.328;5.558;2023-07-31T09:38:33;39.00;44.00
7738;DHT22;29398;45.328;5.558;2023-07-31T09:39:45;39.00;44.50
7738;DHT22;29398;45.328;5.558;2023-07-31T09:40:49;39.00;43.80